sensor_id;sensor_type;location;lat;lon;timestamp;P1;durP1;ratioP1;P2;durP2;ratioP2
22030;SDS011;11179;52.106;21.024;2022-09-13T00:01:40;24.77;;;14.60;;
22030;SDS011;11179;52.106;21.024;2022-09-13T00:04:05;20.57;;;13.93;;
22030;SDS011;11179;52.106;21.024;2022-09-13T00:06:31;26.97;;;14.20;;
22030;SDS011;11179;52.106;21.024;2022-09-13T00:08:56;22.73;;;14.00;;
22030;SDS011;11179;52.106;21.024;2022-09-13T00:11:25;30.27;;;14.23;;
22030;SDS011;11179;52.106;21.024;2022-09-13T00:13:52;23.53;;;13.80;;
22030;SDS011;11179;52.106;21.024;2022-09-13T00:16:19;24.43;;;14.60;;
22030;SDS011;11179;52.106;21.024;2022-09-13T00:18:46;25.43;;;13.87;;
22030;SDS011;11179;52.106;21.024;2022-09-13T00:21:12;26.97;;;14.53;;
22030;SDS011;11179;52.106;21.024;2022-09-13T00:23:42;22.47;;;13.93;;
22030;SDS011;11179;52.106;21.024;2022-09-13T00:26:09;24.43;;;13.17;;
22030;SDS011;11179;52.106;21.024;2022-09-13T00:28:37;22.67;;;13.20;;
22030;SDS011;11179;52.106;21.024;2022-09-13T00:31:03;30.90;;;17.17;;
22030;SDS011;11179;52.106;21.024;2022-09-13T00:33:30;27.73;;;16.03;;
22030;SDS011;11179;52.106;21.024;2022-09-13T00:35:56;23.77;;;13.57;;
22030;SDS011;11179;52.106;21.024;2022-09-13T00:38:21;29.27;;;15.43;;
22030;SDS011;11179;52.106;21.024;2022-09-13T00:40:47;26.30;;;14.07;;
22030;SDS011;11179;52.106;21.024;2022-09-13T00:43:15;24.97;;;14.13;;
22030;SDS011;11179;52.106;21.024;2022-09-13T00:45:45;22.93;;;13.63;;
22030;SDS011;11179;52.106;21.024;2022-09-13T00:48:17;25.63;;;14.33;;
22030;SDS011;11179;52.106;21.024;2022-09-13T00:50:51;23.30;;;14.20;;
22030;SDS011;11179;52.106;21.024;2022-09-13T00:58:25;22.53;;;12.97;;
22030;SDS011;11179;52.106;21.024;2022-09-13T01:00:57;21.53;;;13.40;;
22030;SDS011;11179;52.106;21.024;2022-09-13T01:03:25;35.63;;;18.60;;
22030;SDS011;11179;52.106;21.024;2022-09-13T01:05:55;29.50;;;17.13;;
22030;SDS011;11179;52.106;21.024;2022-09-13T01:08:27;27.83;;;14.17;;
22030;SDS011;11179;52.106;21.024;2022-09-13T01:10:55;27.90;;;15.27;;
22030;SDS011;11179;52.106;21.024;2022-09-13T01:13:25;25.80;;;14.37;;
22030;SDS011;11179;52.106;21.024;2022-09-13T01:15:52;24.60;;;14.10;;
22030;SDS011;11179;52.106;21.024;2022-09-13T01:18:18;29.47;;;15.63;;
22030;SDS011;11179;52.106;21.024;2022-09-13T01:31:53;32.70;;;17.90;;
22030;SDS011;11179;52.106;21.024;2022-09-13T01:34:46;25.30;;;14.80;;
22030;SDS011;11179;52.106;21.024;2022-09-13T01:37:42;24.73;;;13.37;;
22030;SDS011;11179;52.106;21.024;2022-09-13T01:51:27;17.17;;;11.13;;
22030;SDS011;11179;52.106;21.024;2022-09-13T01:54:02;19.83;;;11.43;;
22030;SDS011;11179;52.106;21.024;2022-09-13T02:04:41;27.93;;;16.80;;
22030;SDS011;11179;52.106;21.024;2022-09-13T02:07:23;30.87;;;18.80;;
22030;SDS011;11179;52.106;21.024;2022-09-13T02:09:56;24.80;;;12.60;;
22030;SDS011;11179;52.106;21.024;2022-09-13T02:12:25;22.03;;;13.73;;
22030;SDS011;11179;52.106;21.024;2022-09-13T02:17:28;30.20;;;14.57;;
22030;SDS011;11179;52.106;21.024;2022-09-13T02:20:00;30.73;;;16.10;;
22030;SDS011;11179;52.106;21.024;2022-09-13T02:22:34;30.80;;;15.90;;
22030;SDS011;11179;52.106;21.024;2022-09-13T02:25:05;34.27;;;15.53;;
22030;SDS011;11179;52.106;21.024;2022-09-13T02:27:34;37.60;;;17.40;;
22030;SDS011;11179;52.106;21.024;2022-09-13T02:30:06;46.13;;;17.37;;
22030;SDS011;11179;52.106;21.024;2022-09-13T02:32:39;66.77;;;17.57;;
22030;SDS011;11179;52.106;21.024;2022-09-13T02:37:43;33.30;;;15.03;;
22030;SDS011;11179;52.106;21.024;2022-09-13T02:40:17;39.40;;;14.90;;
22030;SDS011;11179;52.106;21.024;2022-09-13T02:43:07;26.67;;;14.13;;
22030;SDS011;11179;52.106;21.024;2022-09-13T02:46:11;24.07;;;12.63;;
22030;SDS011;11179;52.106;21.024;2022-09-13T02:48:34;27.13;;;14.17;;
22030;SDS011;11179;52.106;21.024;2022-09-13T02:54:00;30.50;;;13.27;;
22030;SDS011;11179;52.106;21.024;2022-09-13T02:56:46;25.67;;;13.10;;
22030;SDS011;11179;52.106;21.024;2022-09-13T02:59:21;26.30;;;14.77;;
22030;SDS011;11179;52.106;21.024;2022-09-13T03:02:05;22.83;;;12.87;;
22030;SDS011;11179;52.106;21.024;2022-09-13T03:04:34;27.00;;;12.70;;
22030;SDS011;11179;52.106;21.024;2022-09-13T03:07:00;22.80;;;12.37;;
22030;SDS011;11179;52.106;21.024;2022-09-13T03:09:28;32.97;;;13.13;;
22030;SDS011;11179;52.106;21.024;2022-09-13T03:14:53;25.73;;;13.20;;
22030;SDS011;11179;52.106;21.024;2022-09-13T03:17:33;33.53;;;13.80;;
22030;SDS011;11179;52.106;21.024;2022-09-13T03:28:15;107.47;;;18.10;;
22030;SDS011;11179;52.106;21.024;2022-09-13T03:30:54;82.53;;;16.43;;
22030;SDS011;11179;52.106;21.024;2022-09-13T03:33:30;42.23;;;13.50;;
22030;SDS011;11179;52.106;21.024;2022-09-13T03:36:20;26.93;;;14.13;;
22030;SDS011;11179;52.106;21.024;2022-09-13T03:41:23;31.67;;;13.57;;
22030;SDS011;11179;52.106;21.024;2022-09-13T03:43:58;23.20;;;12.70;;
22030;SDS011;11179;52.106;21.024;2022-09-13T03:46:29;122.67;;;17.50;;
22030;SDS011;11179;52.106;21.024;2022-09-13T03:49:02;34.43;;;14.87;;
22030;SDS011;11179;52.106;21.024;2022-09-13T03:51:31;39.20;;;13.60;;
22030;SDS011;11179;52.106;21.024;2022-09-13T03:53:58;32.67;;;13.80;;
22030;SDS011;11179;52.106;21.024;2022-09-13T03:56:26;42.90;;;13.83;;
22030;SDS011;11179;52.106;21.024;2022-09-13T03:58:52;27.83;;;14.70;;
22030;SDS011;11179;52.106;21.024;2022-09-13T04:01:18;24.27;;;12.50;;
22030;SDS011;11179;52.106;21.024;2022-09-13T04:03:45;59.80;;;13.53;;
22030;SDS011;11179;52.106;21.024;2022-09-13T04:06:11;36.70;;;14.73;;
22030;SDS011;11179;52.106;21.024;2022-09-13T04:08:37;29.77;;;11.80;;
22030;SDS011;11179;52.106;21.024;2022-09-13T04:11:02;36.53;;;13.17;;
22030;SDS011;11179;52.106;21.024;2022-09-13T04:13:28;29.13;;;12.33;;
22030;SDS011;11179;52.106;21.024;2022-09-13T04:15:53;30.20;;;13.13;;
22030;SDS011;11179;52.106;21.024;2022-09-13T04:18:19;50.13;;;13.60;;
22030;SDS011;11179;52.106;21.024;2022-09-13T04:20:51;29.53;;;14.30;;
22030;SDS011;11179;52.106;21.024;2022-09-13T04:23:21;24.17;;;13.50;;
22030;SDS011;11179;52.106;21.024;2022-09-13T04:25:47;19.87;;;12.10;;
22030;SDS011;11179;52.106;21.024;2022-09-13T04:28:12;24.70;;;11.30;;
22030;SDS011;11179;52.106;21.024;2022-09-13T04:30:37;22.27;;;12.03;;
22030;SDS011;11179;52.106;21.024;2022-09-13T04:33:03;19.13;;;11.53;;
22030;SDS011;11179;52.106;21.024;2022-09-13T04:35:28;31.20;;;14.27;;
22030;SDS011;11179;52.106;21.024;2022-09-13T04:37:54;21.03;;;12.97;;
22030;SDS011;11179;52.106;21.024;2022-09-13T04:40:21;22.13;;;12.70;;
22030;SDS011;11179;52.106;21.024;2022-09-13T04:42:47;22.00;;;12.40;;
22030;SDS011;11179;52.106;21.024;2022-09-13T04:45:13;20.47;;;12.20;;
22030;SDS011;11179;52.106;21.024;2022-09-13T04:47:38;19.20;;;12.60;;
22030;SDS011;11179;52.106;21.024;2022-09-13T04:50:03;21.30;;;12.70;;
22030;SDS011;11179;52.106;21.024;2022-09-13T04:52:31;21.87;;;11.77;;
22030;SDS011;11179;52.106;21.024;2022-09-13T04:54:56;24.83;;;14.20;;
22030;SDS011;11179;52.106;21.024;2022-09-13T04:57:25;27.53;;;13.00;;
22030;SDS011;11179;52.106;21.024;2022-09-13T04:59:51;19.80;;;12.00;;
22030;SDS011;11179;52.106;21.024;2022-09-13T05:02:16;21.83;;;12.50;;
22030;SDS011;11179;52.106;21.024;2022-09-13T05:04:41;18.30;;;11.13;;
22030;SDS011;11179;52.106;21.024;2022-09-13T05:07:07;16.03;;;10.63;;
22030;SDS011;11179;52.106;21.024;2022-09-13T05:09:32;18.53;;;10.20;;
22030;SDS011;11179;52.106;21.024;2022-09-13T05:11:57;17.00;;;10.60;;
22030;SDS011;11179;52.106;21.024;2022-09-13T05:14:24;18.27;;;10.70;;
22030;SDS011;11179;52.106;21.024;2022-09-13T05:16:49;17.80;;;10.20;;
22030;SDS011;11179;52.106;21.024;2022-09-13T05:19:14;16.37;;;10.03;;
22030;SDS011;11179;52.106;21.024;2022-09-13T05:21:40;20.13;;;11.13;;
22030;SDS011;11179;52.106;21.024;2022-09-13T05:24:05;15.40;;;8.70;;
22030;SDS011;11179;52.106;21.024;2022-09-13T05:26:31;20.73;;;9.47;;
22030;SDS011;11179;52.106;21.024;2022-09-13T05:28:57;17.10;;;9.73;;
22030;SDS011;11179;52.106;21.024;2022-09-13T05:31:25;18.07;;;9.67;;
22030;SDS011;11179;52.106;21.024;2022-09-13T05:33:54;16.20;;;9.17;;
22030;SDS011;11179;52.106;21.024;2022-09-13T05:36:22;15.33;;;9.00;;
22030;SDS011;11179;52.106;21.024;2022-09-13T05:38:48;22.33;;;9.10;;
22030;SDS011;11179;52.106;21.024;2022-09-13T05:41:13;16.93;;;8.60;;
22030;SDS011;11179;52.106;21.024;2022-09-13T05:43:38;15.53;;;7.83;;
22030;SDS011;11179;52.106;21.024;2022-09-13T05:48:30;18.10;;;9.17;;
22030;SDS011;11179;52.106;21.024;2022-09-13T05:50:56;14.93;;;8.23;;
22030;SDS011;11179;52.106;21.024;2022-09-13T05:53:28;28.77;;;8.80;;
22030;SDS011;11179;52.106;21.024;2022-09-13T05:55:54;17.70;;;8.97;;
22030;SDS011;11179;52.106;21.024;2022-09-13T05:58:20;14.83;;;7.90;;
22030;SDS011;11179;52.106;21.024;2022-09-13T06:00:51;14.47;;;9.00;;
22030;SDS011;11179;52.106;21.024;2022-09-13T06:03:20;22.97;;;8.77;;
22030;SDS011;11179;52.106;21.024;2022-09-13T06:05:46;15.43;;;8.80;;
22030;SDS011;11179;52.106;21.024;2022-09-13T06:08:12;18.07;;;8.10;;
22030;SDS011;11179;52.106;21.024;2022-09-13T06:10:37;15.33;;;8.60;;
22030;SDS011;11179;52.106;21.024;2022-09-13T06:13:03;13.13;;;9.00;;
22030;SDS011;11179;52.106;21.024;2022-09-13T06:15:28;13.87;;;8.37;;
22030;SDS011;11179;52.106;21.024;2022-09-13T06:17:53;16.70;;;9.23;;
22030;SDS011;11179;52.106;21.024;2022-09-13T06:20:19;23.70;;;9.57;;
22030;SDS011;11179;52.106;21.024;2022-09-13T06:22:46;15.60;;;8.70;;
22030;SDS011;11179;52.106;21.024;2022-09-13T06:25:12;15.30;;;7.70;;
22030;SDS011;11179;52.106;21.024;2022-09-13T06:27:37;16.03;;;8.90;;
22030;SDS011;11179;52.106;21.024;2022-09-13T06:30:02;15.93;;;9.07;;
22030;SDS011;11179;52.106;21.024;2022-09-13T06:32:29;16.33;;;9.47;;
22030;SDS011;11179;52.106;21.024;2022-09-13T06:34:54;11.67;;;7.63;;
22030;SDS011;11179;52.106;21.024;2022-09-13T06:37:20;15.50;;;8.43;;
22030;SDS011;11179;52.106;21.024;2022-09-13T06:39:46;15.73;;;8.97;;
22030;SDS011;11179;52.106;21.024;2022-09-13T06:42:11;13.80;;;8.20;;
22030;SDS011;11179;52.106;21.024;2022-09-13T06:44:36;17.47;;;9.77;;
22030;SDS011;11179;52.106;21.024;2022-09-13T06:47:02;19.37;;;9.67;;
22030;SDS011;11179;52.106;21.024;2022-09-13T06:49:27;22.80;;;9.57;;
22030;SDS011;11179;52.106;21.024;2022-09-13T06:51:55;21.63;;;9.27;;
22030;SDS011;11179;52.106;21.024;2022-09-13T06:54:21;14.70;;;9.10;;
22030;SDS011;11179;52.106;21.024;2022-09-13T06:56:46;16.27;;;10.43;;
22030;SDS011;11179;52.106;21.024;2022-09-13T06:59:11;18.10;;;10.40;;
22030;SDS011;11179;52.106;21.024;2022-09-13T07:01:37;18.40;;;9.93;;
22030;SDS011;11179;52.106;21.024;2022-09-13T07:04:05;16.97;;;9.93;;
22030;SDS011;11179;52.106;21.024;2022-09-13T07:06:33;19.50;;;10.30;;
22030;SDS011;11179;52.106;21.024;2022-09-13T07:09:00;17.40;;;10.47;;
22030;SDS011;11179;52.106;21.024;2022-09-13T07:11:32;27.47;;;10.90;;
22030;SDS011;11179;52.106;21.024;2022-09-13T07:14:01;32.37;;;9.70;;
22030;SDS011;11179;52.106;21.024;2022-09-13T07:16:29;17.67;;;9.23;;
22030;SDS011;11179;52.106;21.024;2022-09-13T07:18:59;39.83;;;11.67;;
22030;SDS011;11179;52.106;21.024;2022-09-13T07:21:26;30.97;;;10.53;;
22030;SDS011;11179;52.106;21.024;2022-09-13T07:23:53;25.90;;;9.60;;
22030;SDS011;11179;52.106;21.024;2022-09-13T07:26:19;33.10;;;12.00;;
22030;SDS011;11179;52.106;21.024;2022-09-13T07:28:46;16.90;;;9.37;;
22030;SDS011;11179;52.106;21.024;2022-09-13T07:31:19;19.87;;;9.40;;
22030;SDS011;11179;52.106;21.024;2022-09-13T07:33:53;22.77;;;9.67;;
22030;SDS011;11179;52.106;21.024;2022-09-13T07:36:23;27.83;;;9.53;;
22030;SDS011;11179;52.106;21.024;2022-09-13T07:38:50;49.73;;;12.33;;
22030;SDS011;11179;52.106;21.024;2022-09-13T07:41:16;55.13;;;11.50;;
22030;SDS011;11179;52.106;21.024;2022-09-13T07:43:43;20.20;;;9.80;;
22030;SDS011;11179;52.106;21.024;2022-09-13T07:46:10;18.47;;;10.10;;
22030;SDS011;11179;52.106;21.024;2022-09-13T07:48:40;28.23;;;9.70;;
22030;SDS011;11179;52.106;21.024;2022-09-13T07:53:38;14.33;;;8.60;;
22030;SDS011;11179;52.106;21.024;2022-09-13T07:56:08;21.77;;;9.47;;
22030;SDS011;11179;52.106;21.024;2022-09-13T07:58:36;30.43;;;9.43;;
22030;SDS011;11179;52.106;21.024;2022-09-13T08:03:29;15.80;;;8.10;;
22030;SDS011;11179;52.106;21.024;2022-09-13T08:05:56;13.93;;;7.87;;
22030;SDS011;11179;52.106;21.024;2022-09-13T08:08:21;25.13;;;8.43;;
22030;SDS011;11179;52.106;21.024;2022-09-13T08:10:46;18.10;;;7.70;;
22030;SDS011;11179;52.106;21.024;2022-09-13T08:13:12;13.50;;;7.90;;
22030;SDS011;11179;52.106;21.024;2022-09-13T08:15:39;22.33;;;7.50;;
22030;SDS011;11179;52.106;21.024;2022-09-13T08:18:04;20.70;;;7.33;;
22030;SDS011;11179;52.106;21.024;2022-09-13T08:20:30;15.53;;;6.33;;
22030;SDS011;11179;52.106;21.024;2022-09-13T08:22:59;15.23;;;7.30;;
22030;SDS011;11179;52.106;21.024;2022-09-13T08:25:24;23.67;;;7.30;;
22030;SDS011;11179;52.106;21.024;2022-09-13T08:27:51;15.20;;;4.70;;
22030;SDS011;11179;52.106;21.024;2022-09-13T08:30:16;8.10;;;3.63;;
22030;SDS011;11179;52.106;21.024;2022-09-13T08:32:41;54.53;;;8.80;;
22030;SDS011;11179;52.106;21.024;2022-09-13T08:37:35;11.77;;;3.70;;
22030;SDS011;11179;52.106;21.024;2022-09-13T08:40:01;14.90;;;4.20;;
22030;SDS011;11179;52.106;21.024;2022-09-13T08:45:24;18.80;;;5.37;;
22030;SDS011;11179;52.106;21.024;2022-09-13T08:47:56;11.20;;;3.80;;
22030;SDS011;11179;52.106;21.024;2022-09-13T08:50:29;17.50;;;4.67;;
22030;SDS011;11179;52.106;21.024;2022-09-13T08:53:05;6.53;;;3.70;;
22030;SDS011;11179;52.106;21.024;2022-09-13T09:01:05;10.43;;;4.63;;
22030;SDS011;11179;52.106;21.024;2022-09-13T09:06:06;16.27;;;5.27;;
22030;SDS011;11179;52.106;21.024;2022-09-13T09:11:25;11.37;;;4.97;;
22030;SDS011;11179;52.106;21.024;2022-09-13T09:13:55;17.70;;;5.90;;
22030;SDS011;11179;52.106;21.024;2022-09-13T09:19:02;37.47;;;6.07;;
22030;SDS011;11179;52.106;21.024;2022-09-13T09:21:35;9.37;;;4.60;;
22030;SDS011;11179;52.106;21.024;2022-09-13T09:24:02;10.47;;;4.70;;
22030;SDS011;11179;52.106;21.024;2022-09-13T09:26:29;11.47;;;4.07;;
22030;SDS011;11179;52.106;21.024;2022-09-13T09:28:57;11.47;;;4.37;;
22030;SDS011;11179;52.106;21.024;2022-09-13T09:34:20;26.53;;;5.80;;
22030;SDS011;11179;52.106;21.024;2022-09-13T09:37:23;8.93;;;4.17;;
22030;SDS011;11179;52.106;21.024;2022-09-13T09:39:54;32.83;;;7.57;;
22030;SDS011;11179;52.106;21.024;2022-09-13T09:42:26;19.50;;;5.10;;
22030;SDS011;11179;52.106;21.024;2022-09-13T09:44:59;8.27;;;3.37;;
22030;SDS011;11179;52.106;21.024;2022-09-13T09:47:28;21.17;;;4.30;;
22030;SDS011;11179;52.106;21.024;2022-09-13T09:50:00;21.33;;;3.47;;
22030;SDS011;11179;52.106;21.024;2022-09-13T09:55:28;8.40;;;3.23;;
22030;SDS011;11179;52.106;21.024;2022-09-13T09:58:16;8.37;;;2.80;;
22030;SDS011;11179;52.106;21.024;2022-09-13T10:00:51;10.50;;;3.30;;
22030;SDS011;11179;52.106;21.024;2022-09-13T10:03:20;7.77;;;2.50;;
22030;SDS011;11179;52.106;21.024;2022-09-13T10:05:49;13.60;;;3.10;;
22030;SDS011;11179;52.106;21.024;2022-09-13T10:08:52;20.10;;;3.30;;
22030;SDS011;11179;52.106;21.024;2022-09-13T10:11:07;8.83;;;2.53;;
22030;SDS011;11179;52.106;21.024;2022-09-13T10:13:34;26.73;;;4.50;;
22030;SDS011;11179;52.106;21.024;2022-09-13T10:16:02;20.93;;;3.90;;
22030;SDS011;11179;52.106;21.024;2022-09-13T10:18:33;25.83;;;4.87;;
22030;SDS011;11179;52.106;21.024;2022-09-13T10:23:32;101.80;;;9.90;;
22030;SDS011;11179;52.106;21.024;2022-09-13T10:26:00;26.10;;;4.03;;
22030;SDS011;11179;52.106;21.024;2022-09-13T10:28:30;9.37;;;2.57;;
22030;SDS011;11179;52.106;21.024;2022-09-13T10:31:17;6.93;;;2.60;;
22030;SDS011;11179;52.106;21.024;2022-09-13T10:33:51;12.67;;;2.57;;
22030;SDS011;11179;52.106;21.024;2022-09-13T10:36:25;7.10;;;2.40;;
22030;SDS011;11179;52.106;21.024;2022-09-13T10:38:59;15.10;;;3.50;;
22030;SDS011;11179;52.106;21.024;2022-09-13T10:41:27;14.33;;;3.40;;
22030;SDS011;11179;52.106;21.024;2022-09-13T10:43:56;11.33;;;4.13;;
22030;SDS011;11179;52.106;21.024;2022-09-13T10:46:23;11.90;;;2.27;;
22030;SDS011;11179;52.106;21.024;2022-09-13T10:48:48;6.93;;;2.50;;
22030;SDS011;11179;52.106;21.024;2022-09-13T10:56:39;7.40;;;2.10;;
22030;SDS011;11179;52.106;21.024;2022-09-13T11:13:11;16.27;;;2.83;;
22030;SDS011;11179;52.106;21.024;2022-09-13T11:16:05;11.47;;;2.40;;
22030;SDS011;11179;52.106;21.024;2022-09-13T11:18:48;5.60;;;2.47;;
22030;SDS011;11179;52.106;21.024;2022-09-13T11:24:25;10.30;;;2.90;;
22030;SDS011;11179;52.106;21.024;2022-09-13T11:27:01;7.23;;;2.40;;
22030;SDS011;11179;52.106;21.024;2022-09-13T11:29:36;11.20;;;2.57;;
22030;SDS011;11179;52.106;21.024;2022-09-13T11:35:23;8.20;;;2.63;;
22030;SDS011;11179;52.106;21.024;2022-09-13T11:40:56;7.03;;;3.00;;
22030;SDS011;11179;52.106;21.024;2022-09-13T11:51:57;8.63;;;2.77;;
22030;SDS011;11179;52.106;21.024;2022-09-13T11:57:34;9.37;;;3.20;;
22030;SDS011;11179;52.106;21.024;2022-09-13T12:00:05;10.13;;;2.73;;
22030;SDS011;11179;52.106;21.024;2022-09-13T12:02:44;17.10;;;4.83;;
22030;SDS011;11179;52.106;21.024;2022-09-13T12:05:32;8.00;;;3.70;;
22030;SDS011;11179;52.106;21.024;2022-09-13T12:13:09;10.83;;;3.50;;
22030;SDS011;11179;52.106;21.024;2022-09-13T12:15:41;20.60;;;4.23;;
22030;SDS011;11179;52.106;21.024;2022-09-13T12:21:08;6.73;;;3.33;;
22030;SDS011;11179;52.106;21.024;2022-09-13T12:26:25;8.13;;;3.00;;
22030;SDS011;11179;52.106;21.024;2022-09-13T12:29:01;17.23;;;5.40;;
22030;SDS011;11179;52.106;21.024;2022-09-13T12:31:47;50.27;;;8.17;;
22030;SDS011;11179;52.106;21.024;2022-09-13T12:34:18;12.60;;;4.47;;
22030;SDS011;11179;52.106;21.024;2022-09-13T12:45:32;67.67;;;8.07;;
22030;SDS011;11179;52.106;21.024;2022-09-13T12:53:43;15.07;;;4.90;;
22030;SDS011;11179;52.106;21.024;2022-09-13T12:58:39;20.70;;;4.77;;
22030;SDS011;11179;52.106;21.024;2022-09-13T13:01:28;12.73;;;4.67;;
22030;SDS011;11179;52.106;21.024;2022-09-13T13:07:01;28.93;;;6.00;;
22030;SDS011;11179;52.106;21.024;2022-09-13T13:12:00;28.13;;;6.30;;
22030;SDS011;11179;52.106;21.024;2022-09-13T13:14:28;10.60;;;5.10;;
22030;SDS011;11179;52.106;21.024;2022-09-13T13:20:37;11.60;;;4.70;;
22030;SDS011;11179;52.106;21.024;2022-09-13T13:39:11;18.43;;;4.60;;
22030;SDS011;11179;52.106;21.024;2022-09-13T13:46:49;22.40;;;6.30;;
22030;SDS011;11179;52.106;21.024;2022-09-13T13:57:43;28.80;;;5.60;;
22030;SDS011;11179;52.106;21.024;2022-09-13T14:00:20;14.00;;;5.13;;
22030;SDS011;11179;52.106;21.024;2022-09-13T14:05:24;19.03;;;5.93;;
22030;SDS011;11179;52.106;21.024;2022-09-13T14:16:30;12.80;;;4.43;;
22030;SDS011;11179;52.106;21.024;2022-09-13T14:21:27;14.00;;;4.97;;
22030;SDS011;11179;52.106;21.024;2022-09-13T14:24:07;19.90;;;5.83;;
22030;SDS011;11179;52.106;21.024;2022-09-13T14:26:48;30.03;;;5.80;;
22030;SDS011;11179;52.106;21.024;2022-09-13T14:29:17;15.93;;;5.50;;
22030;SDS011;11179;52.106;21.024;2022-09-13T14:31:45;13.30;;;5.27;;
22030;SDS011;11179;52.106;21.024;2022-09-13T14:34:20;25.13;;;5.27;;
22030;SDS011;11179;52.106;21.024;2022-09-13T14:36:51;28.03;;;5.63;;
22030;SDS011;11179;52.106;21.024;2022-09-13T14:39:19;16.33;;;4.60;;
22030;SDS011;11179;52.106;21.024;2022-09-13T14:41:44;13.63;;;4.77;;
22030;SDS011;11179;52.106;21.024;2022-09-13T14:44:31;16.20;;;7.00;;
22030;SDS011;11179;52.106;21.024;2022-09-13T14:46:58;27.43;;;5.93;;
22030;SDS011;11179;52.106;21.024;2022-09-13T14:49:31;27.67;;;5.87;;
22030;SDS011;11179;52.106;21.024;2022-09-13T14:52:07;27.83;;;5.97;;
22030;SDS011;11179;52.106;21.024;2022-09-13T14:54:42;13.63;;;4.80;;
22030;SDS011;11179;52.106;21.024;2022-09-13T14:57:32;24.33;;;5.30;;
22030;SDS011;11179;52.106;21.024;2022-09-13T15:00:05;14.37;;;5.70;;
22030;SDS011;11179;52.106;21.024;2022-09-13T15:02:52;70.17;;;9.00;;
22030;SDS011;11179;52.106;21.024;2022-09-13T15:05:20;17.27;;;6.90;;
22030;SDS011;11179;52.106;21.024;2022-09-13T15:07:48;13.23;;;6.50;;
22030;SDS011;11179;52.106;21.024;2022-09-13T15:15:24;20.60;;;7.30;;
22030;SDS011;11179;52.106;21.024;2022-09-13T15:17:51;15.23;;;6.87;;
22030;SDS011;11179;52.106;21.024;2022-09-13T15:20:24;11.23;;;6.43;;
22030;SDS011;11179;52.106;21.024;2022-09-13T15:22:53;19.43;;;5.83;;
22030;SDS011;11179;52.106;21.024;2022-09-13T15:25:20;13.37;;;6.17;;
22030;SDS011;11179;52.106;21.024;2022-09-13T15:27:49;24.73;;;7.03;;
22030;SDS011;11179;52.106;21.024;2022-09-13T15:30:19;20.40;;;6.30;;
22030;SDS011;11179;52.106;21.024;2022-09-13T15:32:47;35.73;;;8.10;;
22030;SDS011;11179;52.106;21.024;2022-09-13T15:35:17;55.17;;;9.07;;
22030;SDS011;11179;52.106;21.024;2022-09-13T15:37:57;61.07;;;9.60;;
22030;SDS011;11179;52.106;21.024;2022-09-13T15:40:24;31.80;;;8.20;;
22030;SDS011;11179;52.106;21.024;2022-09-13T15:42:52;22.80;;;6.50;;
22030;SDS011;11179;52.106;21.024;2022-09-13T15:45:18;19.60;;;7.07;;
22030;SDS011;11179;52.106;21.024;2022-09-13T15:47:45;11.03;;;6.70;;
22030;SDS011;11179;52.106;21.024;2022-09-13T15:50:20;25.30;;;7.10;;
22030;SDS011;11179;52.106;21.024;2022-09-13T15:52:50;18.37;;;7.33;;
22030;SDS011;11179;52.106;21.024;2022-09-13T15:55:16;12.43;;;6.57;;
22030;SDS011;11179;52.106;21.024;2022-09-13T15:57:42;15.60;;;7.30;;
22030;SDS011;11179;52.106;21.024;2022-09-13T16:00:13;16.10;;;6.40;;
22030;SDS011;11179;52.106;21.024;2022-09-13T16:02:44;48.83;;;7.90;;
22030;SDS011;11179;52.106;21.024;2022-09-13T16:05:10;29.30;;;7.70;;
22030;SDS011;11179;52.106;21.024;2022-09-13T16:07:36;17.20;;;6.97;;
22030;SDS011;11179;52.106;21.024;2022-09-13T16:10:02;12.60;;;7.13;;
22030;SDS011;11179;52.106;21.024;2022-09-13T16:12:28;16.03;;;7.60;;
22030;SDS011;11179;52.106;21.024;2022-09-13T16:14:53;29.00;;;6.83;;
22030;SDS011;11179;52.106;21.024;2022-09-13T16:17:25;17.23;;;7.73;;
22030;SDS011;11179;52.106;21.024;2022-09-13T16:19:52;43.13;;;9.13;;
22030;SDS011;11179;52.106;21.024;2022-09-13T16:22:18;37.60;;;7.50;;
22030;SDS011;11179;52.106;21.024;2022-09-13T16:24:44;31.73;;;7.23;;
22030;SDS011;11179;52.106;21.024;2022-09-13T16:27:14;53.37;;;9.70;;
22030;SDS011;11179;52.106;21.024;2022-09-13T16:29:41;48.73;;;9.50;;
22030;SDS011;11179;52.106;21.024;2022-09-13T16:32:06;34.13;;;8.33;;
22030;SDS011;11179;52.106;21.024;2022-09-13T16:34:32;25.77;;;7.60;;
22030;SDS011;11179;52.106;21.024;2022-09-13T16:36:57;15.67;;;7.47;;
22030;SDS011;11179;52.106;21.024;2022-09-13T16:39:23;14.30;;;6.70;;
22030;SDS011;11179;52.106;21.024;2022-09-13T16:41:48;15.20;;;7.20;;
22030;SDS011;11179;52.106;21.024;2022-09-13T16:44:13;14.50;;;7.50;;
22030;SDS011;11179;52.106;21.024;2022-09-13T16:46:40;23.00;;;7.87;;
22030;SDS011;11179;52.106;21.024;2022-09-13T16:49:05;24.43;;;8.80;;
22030;SDS011;11179;52.106;21.024;2022-09-13T16:51:31;17.37;;;7.87;;
22030;SDS011;11179;52.106;21.024;2022-09-13T16:53:56;17.23;;;8.20;;
22030;SDS011;11179;52.106;21.024;2022-09-13T16:56:23;15.27;;;8.70;;
22030;SDS011;11179;52.106;21.024;2022-09-13T16:58:49;15.87;;;8.63;;
22030;SDS011;11179;52.106;21.024;2022-09-13T17:01:20;14.60;;;8.10;;
22030;SDS011;11179;52.106;21.024;2022-09-13T17:03:48;15.80;;;9.57;;
22030;SDS011;11179;52.106;21.024;2022-09-13T17:06:15;16.60;;;9.37;;
22030;SDS011;11179;52.106;21.024;2022-09-13T17:08:44;13.43;;;8.27;;
22030;SDS011;11179;52.106;21.024;2022-09-13T17:11:12;16.57;;;9.40;;
22030;SDS011;11179;52.106;21.024;2022-09-13T17:13:39;14.03;;;8.63;;
22030;SDS011;11179;52.106;21.024;2022-09-13T17:16:05;21.63;;;9.27;;
22030;SDS011;11179;52.106;21.024;2022-09-13T17:18:32;15.17;;;9.30;;
22030;SDS011;11179;52.106;21.024;2022-09-13T17:20:58;15.70;;;8.93;;
22030;SDS011;11179;52.106;21.024;2022-09-13T17:23:24;12.83;;;8.70;;
22030;SDS011;11179;52.106;21.024;2022-09-13T17:25:50;15.97;;;9.77;;
22030;SDS011;11179;52.106;21.024;2022-09-13T17:28:17;15.07;;;9.17;;
22030;SDS011;11179;52.106;21.024;2022-09-13T17:30:43;13.50;;;9.10;;
22030;SDS011;11179;52.106;21.024;2022-09-13T17:33:10;17.63;;;10.10;;
22030;SDS011;11179;52.106;21.024;2022-09-13T17:35:36;15.20;;;8.53;;
22030;SDS011;11179;52.106;21.024;2022-09-13T17:38:02;14.30;;;9.10;;
22030;SDS011;11179;52.106;21.024;2022-09-13T17:40:28;15.13;;;7.60;;
22030;SDS011;11179;52.106;21.024;2022-09-13T17:42:54;13.30;;;7.97;;
22030;SDS011;11179;52.106;21.024;2022-09-13T17:45:20;13.53;;;7.83;;
22030;SDS011;11179;52.106;21.024;2022-09-13T17:47:46;13.33;;;7.20;;
22030;SDS011;11179;52.106;21.024;2022-09-13T17:50:12;15.50;;;7.83;;
22030;SDS011;11179;52.106;21.024;2022-09-13T17:52:38;13.97;;;7.50;;
22030;SDS011;11179;52.106;21.024;2022-09-13T17:55:04;14.27;;;6.70;;
22030;SDS011;11179;52.106;21.024;2022-09-13T17:57:31;12.63;;;7.50;;
22030;SDS011;11179;52.106;21.024;2022-09-13T17:59:57;15.17;;;7.20;;
22030;SDS011;11179;52.106;21.024;2022-09-13T18:02:22;13.30;;;7.00;;
22030;SDS011;11179;52.106;21.024;2022-09-13T18:04:48;14.53;;;8.10;;
22030;SDS011;11179;52.106;21.024;2022-09-13T18:07:14;13.10;;;6.70;;
22030;SDS011;11179;52.106;21.024;2022-09-13T18:09:40;17.40;;;7.50;;